sensor_id;sensor_type;location;lat;lon;timestamp;P1;durP1;ratioP1;P2;durP2;ratioP2
52438;SDS011;38359;53.150;6.504;2023-06-22T00:06:42;36.90;;;21.70;;
52438;SDS011;38359;53.150;6.504;2023-06-22T00:17:08;32.53;;;21.35;;
52438;SDS011;38359;53.150;6.504;2023-06-22T00:27:34;29.50;;;20.42;;
52438;SDS011;38359;53.150;6.504;2023-06-22T00:38:00;38.95;;;23.60;;
52438;SDS011;38359;53.150;6.504;2023-06-22T00:48:27;30.92;;;20.13;;
52438;SDS011;38359;53.150;6.504;2023-06-22T00:58:53;25.25;;;18.85;;
52438;SDS011;38359;53.150;6.504;2023-06-22T01:09:22;26.25;;;16.45;;
52438;SDS011;38359;53.150;6.504;2023-06-22T01:19:56;25.70;;;17.83;;
52438;SDS011;38359;53.150;6.504;2023-06-22T01:30:23;20.33;;;14.80;;
52438;SDS011;38359;53.150;6.504;2023-06-22T01:40:51;25.25;;;18.42;;
52438;SDS011;38359;53.150;6.504;2023-06-22T01:51:18;14.07;;;10.95;;
52438;SDS011;38359;53.150;6.504;2023-06-22T02:01:49;15.13;;;12.75;;
52438;SDS011;38359;53.150;6.504;2023-06-22T02:12:31;19.27;;;13.75;;
52438;SDS011;38359;53.150;6.504;2023-06-22T02:22:58;17.77;;;14.75;;
52438;SDS011;38359;53.150;6.504;2023-06-22T02:33:24;19.38;;;14.13;;
52438;SDS011;38359;53.150;6.504;2023-06-22T02:43:50;28.92;;;20.30;;
52438;SDS011;38359;53.150;6.504;2023-06-22T02:54:16;29.23;;;20.45;;
52438;SDS011;38359;53.150;6.504;2023-06-22T03:04:41;31.80;;;20.27;;
52438;SDS011;38359;53.150;6.504;2023-06-22T03:15:09;28.70;;;19.38;;
52438;SDS011;38359;53.150;6.504;2023-06-22T03:25:36;31.55;;;21.40;;
52438;SDS011;38359;53.150;6.504;2023-06-22T03:36:02;27.10;;;20.58;;
52438;SDS011;38359;53.150;6.504;2023-06-22T03:46:28;18.95;;;14.93;;
52438;SDS011;38359;53.150;6.504;2023-06-22T03:56:54;15.68;;;9.73;;
52438;SDS011;38359;53.150;6.504;2023-06-22T04:07:21;14.75;;;12.48;;
52438;SDS011;38359;53.150;6.504;2023-06-22T04:17:47;14.90;;;12.07;;
52438;SDS011;38359;53.150;6.504;2023-06-22T04:28:12;16.10;;;12.63;;
52438;SDS011;38359;53.150;6.504;2023-06-22T04:38:39;13.55;;;11.35;;
52438;SDS011;38359;53.150;6.504;2023-06-22T04:49:05;14.75;;;10.85;;
52438;SDS011;38359;53.150;6.504;2023-06-22T04:59:35;24.13;;;16.38;;
52438;SDS011;38359;53.150;6.504;2023-06-22T05:10:04;36.28;;;23.50;;
52438;SDS011;38359;53.150;6.504;2023-06-22T05:20:30;50.05;;;30.50;;
52438;SDS011;38359;53.150;6.504;2023-06-22T05:30:56;58.75;;;37.38;;
52438;SDS011;38359;53.150;6.504;2023-06-22T05:41:22;63.40;;;40.45;;
52438;SDS011;38359;53.150;6.504;2023-06-22T05:51:48;44.20;;;31.40;;
52438;SDS011;38359;53.150;6.504;2023-06-22T06:02:13;44.63;;;32.05;;
52438;SDS011;38359;53.150;6.504;2023-06-22T06:12:39;34.90;;;26.42;;
52438;SDS011;38359;53.150;6.504;2023-06-22T06:23:05;38.65;;;26.48;;
52438;SDS011;38359;53.150;6.504;2023-06-22T06:33:31;33.03;;;23.75;;
52438;SDS011;38359;53.150;6.504;2023-06-22T06:43:57;28.65;;;19.38;;
52438;SDS011;38359;53.150;6.504;2023-06-22T06:54:22;21.13;;;14.52;;
52438;SDS011;38359;53.150;6.504;2023-06-22T07:04:48;27.92;;;13.88;;
52438;SDS011;38359;53.150;6.504;2023-06-22T07:15:14;26.58;;;13.85;;
52438;SDS011;38359;53.150;6.504;2023-06-22T07:25:40;19.55;;;11.77;;
52438;SDS011;38359;53.150;6.504;2023-06-22T07:36:06;19.98;;;11.80;;
52438;SDS011;38359;53.150;6.504;2023-06-22T07:46:33;15.13;;;10.00;;
52438;SDS011;38359;53.150;6.504;2023-06-22T07:56:59;15.82;;;10.50;;
52438;SDS011;38359;53.150;6.504;2023-06-22T08:07:24;18.50;;;9.85;;
52438;SDS011;38359;53.150;6.504;2023-06-22T08:17:50;16.75;;;9.85;;
52438;SDS011;38359;53.150;6.504;2023-06-22T08:28:17;15.85;;;10.13;;
52438;SDS011;38359;53.150;6.504;2023-06-22T08:38:43;12.20;;;8.55;;
52438;SDS011;38359;53.150;6.504;2023-06-22T08:49:09;13.48;;;7.93;;
52438;SDS011;38359;53.150;6.504;2023-06-22T08:59:35;15.00;;;9.38;;
52438;SDS011;38359;53.150;6.504;2023-06-22T09:10:01;14.57;;;8.93;;
52438;SDS011;38359;53.150;6.504;2023-06-22T09:20:29;14.25;;;9.10;;
52438;SDS011;38359;53.150;6.504;2023-06-22T09:30:56;13.77;;;9.05;;
52438;SDS011;38359;53.150;6.504;2023-06-22T09:41:24;13.07;;;8.45;;
52438;SDS011;38359;53.150;6.504;2023-06-22T09:51:50;12.85;;;7.80;;
52438;SDS011;38359;53.150;6.504;2023-06-22T10:02:17;10.27;;;7.28;;
52438;SDS011;38359;53.150;6.504;2023-06-22T10:12:47;11.30;;;7.40;;
52438;SDS011;38359;53.150;6.504;2023-06-22T10:23:21;12.88;;;7.22;;
52438;SDS011;38359;53.150;6.504;2023-06-22T10:33:47;13.27;;;7.05;;
52438;SDS011;38359;53.150;6.504;2023-06-22T10:44:14;17.13;;;8.50;;
52438;SDS011;38359;53.150;6.504;2023-06-22T10:54:40;15.30;;;8.05;;
52438;SDS011;38359;53.150;6.504;2023-06-22T11:05:06;16.00;;;8.15;;
52438;SDS011;38359;53.150;6.504;2023-06-22T11:15:32;17.38;;;8.20;;
52438;SDS011;38359;53.150;6.504;2023-06-22T11:25:58;10.25;;;6.60;;
52438;SDS011;38359;53.150;6.504;2023-06-22T11:36:24;11.98;;;7.60;;
52438;SDS011;38359;53.150;6.504;2023-06-22T11:46:50;9.50;;;6.75;;
52438;SDS011;38359;53.150;6.504;2023-06-22T11:57:16;11.40;;;6.97;;
52438;SDS011;38359;53.150;6.504;2023-06-22T12:07:42;8.18;;;5.10;;
52438;SDS011;38359;53.150;6.504;2023-06-22T12:18:08;16.98;;;6.50;;
52438;SDS011;38359;53.150;6.504;2023-06-22T12:28:34;18.92;;;5.68;;
52438;SDS011;38359;53.150;6.504;2023-06-22T12:39:00;15.40;;;6.63;;
52438;SDS011;38359;53.150;6.504;2023-06-22T12:49:25;9.45;;;6.15;;
52438;SDS011;38359;53.150;6.504;2023-06-22T12:59:51;11.10;;;6.20;;
52438;SDS011;38359;53.150;6.504;2023-06-22T13:10:17;16.30;;;6.63;;
52438;SDS011;38359;53.150;6.504;2023-06-22T13:20:43;15.38;;;7.50;;
52438;SDS011;38359;53.150;6.504;2023-06-22T13:31:10;9.18;;;5.35;;
52438;SDS011;38359;53.150;6.504;2023-06-22T13:41:36;6.38;;;4.30;;
52438;SDS011;38359;53.150;6.504;2023-06-22T13:52:02;9.52;;;4.25;;
52438;SDS011;38359;53.150;6.504;2023-06-22T14:02:29;5.50;;;3.20;;
52438;SDS011;38359;53.150;6.504;2023-06-22T14:12:54;7.50;;;4.30;;
52438;SDS011;38359;53.150;6.504;2023-06-22T14:23:20;5.18;;;2.90;;
52438;SDS011;38359;53.150;6.504;2023-06-22T14:33:46;5.65;;;3.10;;
52438;SDS011;38359;53.150;6.504;2023-06-22T14:44:14;4.65;;;2.72;;
52438;SDS011;38359;53.150;6.504;2023-06-22T14:54:40;3.78;;;2.10;;
52438;SDS011;38359;53.150;6.504;2023-06-22T15:05:06;5.75;;;1.80;;
52438;SDS011;38359;53.150;6.504;2023-06-22T15:15:32;6.03;;;1.88;;
52438;SDS011;38359;53.150;6.504;2023-06-22T15:26:02;3.40;;;1.30;;
52438;SDS011;38359;53.150;6.504;2023-06-22T15:36:31;8.70;;;1.60;;
52438;SDS011;38359;53.150;6.504;2023-06-22T15:46:58;23.90;;;2.20;;
52438;SDS011;38359;53.150;6.504;2023-06-22T15:57:25;8.10;;;2.15;;
52438;SDS011;38359;53.150;6.504;2023-06-22T16:07:54;5.25;;;1.50;;
52438;SDS011;38359;53.150;6.504;2023-06-22T16:18:21;6.20;;;1.60;;
52438;SDS011;38359;53.150;6.504;2023-06-22T16:28:47;4.05;;;1.60;;
52438;SDS011;38359;53.150;6.504;2023-06-22T16:39:13;3.92;;;1.80;;
52438;SDS011;38359;53.150;6.504;2023-06-22T16:49:39;3.30;;;1.67;;
52438;SDS011;38359;53.150;6.504;2023-06-22T17:00:05;9.23;;;2.00;;
52438;SDS011;38359;53.150;6.504;2023-06-22T17:10:34;6.70;;;2.20;;
52438;SDS011;38359;53.150;6.504;2023-06-22T17:21:00;7.45;;;2.13;;
52438;SDS011;38359;53.150;6.504;2023-06-22T17:31:39;8.48;;;2.30;;
52438;SDS011;38359;53.150;6.504;2023-06-22T17:42:09;6.75;;;2.50;;
52438;SDS011;38359;53.150;6.504;2023-06-22T17:52:35;5.50;;;2.93;;
52438;SDS011;38359;53.150;6.504;2023-06-22T18:03:01;5.53;;;2.83;;
52438;SDS011;38359;53.150;6.504;2023-06-22T18:13:27;8.60;;;3.00;;
52438;SDS011;38359;53.150;6.504;2023-06-22T18:23:53;10.05;;;3.53;;
52438;SDS011;38359;53.150;6.504;2023-06-22T18:34:20;7.63;;;3.00;;
52438;SDS011;38359;53.150;6.504;2023-06-22T18:44:51;10.68;;;3.72;;
52438;SDS011;38359;53.150;6.504;2023-06-22T18:55:20;9.00;;;3.20;;
52438;SDS011;38359;53.150;6.504;2023-06-22T19:05:46;7.88;;;2.95;;
52438;SDS011;38359;53.150;6.504;2023-06-22T19:16:11;7.53;;;3.47;;
52438;SDS011;38359;53.150;6.504;2023-06-22T19:26:39;13.45;;;4.18;;
52438;SDS011;38359;53.150;6.504;2023-06-22T19:37:16;9.57;;;4.68;;
52438;SDS011;38359;53.150;6.504;2023-06-22T19:47:42;16.80;;;4.82;;
52438;SDS011;38359;53.150;6.504;2023-06-22T19:58:19;6.90;;;4.50;;
52438;SDS011;38359;53.150;6.504;2023-06-22T20:08:46;7.38;;;4.45;;
52438;SDS011;38359;53.150;6.504;2023-06-22T20:19:15;8.95;;;5.05;;
52438;SDS011;38359;53.150;6.504;2023-06-22T20:29:40;9.82;;;4.50;;
52438;SDS011;38359;53.150;6.504;2023-06-22T20:40:10;10.02;;;4.70;;
52438;SDS011;38359;53.150;6.504;2023-06-22T20:50:39;8.90;;;3.78;;
52438;SDS011;38359;53.150;6.504;2023-06-22T21:01:05;7.90;;;3.80;;
52438;SDS011;38359;53.150;6.504;2023-06-22T21:11:32;10.13;;;4.30;;
52438;SDS011;38359;53.150;6.504;2023-06-22T21:21:58;7.75;;;3.83;;
52438;SDS011;38359;53.150;6.504;2023-06-22T21:32:24;11.88;;;5.30;;
52438;SDS011;38359;53.150;6.504;2023-06-22T21:42:51;12.80;;;5.93;;
52438;SDS011;38359;53.150;6.504;2023-06-22T21:53:17;13.40;;;6.07;;
52438;SDS011;38359;53.150;6.504;2023-06-22T22:03:42;15.63;;;6.70;;
52438;SDS011;38359;53.150;6.504;2023-06-22T22:14:08;15.70;;;6.90;;
52438;SDS011;38359;53.150;6.504;2023-06-22T22:24:34;18.17;;;7.60;;
52438;SDS011;38359;53.150;6.504;2023-06-22T22:35:00;13.35;;;7.53;;
52438;SDS011;38359;53.150;6.504;2023-06-22T22:45:26;17.80;;;9.30;;
52438;SDS011;38359;53.150;6.504;2023-06-22T22:55:51;17.08;;;10.13;;
52438;SDS011;38359;53.150;6.504;2023-06-22T23:06:17;16.42;;;10.35;;
52438;SDS011;38359;53.150;6.504;2023-06-22T23:16:43;16.58;;;9.77;;
52438;SDS011;38359;53.150;6.504;2023-06-22T23:27:09;20.00;;;11.43;;
52438;SDS011;38359;53.150;6.504;2023-06-22T23:37:38;16.63;;;9.60;;
52438;SDS011;38359;53.150;6.504;2023-06-22T23:48:06;20.02;;;10.75;;
52438;SDS011;38359;53.150;6.504;2023-06-22T23:58:32;19.60;;;10.70;;
